Time;durP1;ratioP1;P1;durP2;ratioP2;P2;SDS_P1;SDS_P2;PMS_P1;PMS_P2;Temp;Humidity;BMP_temperature;BMP_pressure;BME280_temperature;BME280_humidity;BME280_pressure;Samples;Min_cycle;Max_cycle;Signal;HPM_P1;HPM_P2
2021/11/21 00:01:19;;;;;;;3.50;2.63;;;22.50;38.50;;;;;;5022434;28;20897;-71
2021/11/21 00:03:44;;;;;;;3.33;2.65;;;22.50;38.50;;;;;;5022783;28;20394;-73
2021/11/21 00:06:10;;;;;;;3.58;2.50;;;22.50;38.50;;;;;;5022731;28;20394;-72
2021/11/21 00:08:36;;;;;;;3.47;2.60;;;22.50;39.10;;;;;;5022654;28;21378;-73
2021/11/21 00:11:02;;;;;;;3.47;2.60;;;22.50;38.50;;;;;;5022787;28;20884;-73
2021/11/21 00:13:28;;;;;;;3.60;2.65;;;22.50;38.50;;;;;;5022497;28;21218;-72
2021/11/21 00:15:54;;;;;;;3.10;2.50;;;22.50;38.50;;;;;;5022766;28;20391;-72
2021/11/21 00:18:20;;;;;;;4.33;2.93;;;22.50;38.50;;;;;;5022447;28;20726;-72
2021/11/21 00:20:45;;;;;;;4.55;2.55;;;22.50;38.50;;;;;;5025886;28;20831;-71
2021/11/21 00:23:12;;;;;;;4.33;2.60;;;22.50;38.50;;;;;;5024951;28;20404;-71
2021/11/21 00:25:37;;;;;;;3.75;2.58;;;22.50;38.40;;;;;;5024729;28;20480;-72
2021/11/21 00:28:06;;;;;;;3.87;2.80;;;22.50;38.40;;;;;;5026010;28;20395;-73
2021/11/21 00:30:31;;;;;;;3.40;2.50;;;22.50;38.40;;;;;;5024741;28;20497;-73
2021/11/21 00:32:57;;;;;;;3.63;2.55;;;22.50;38.40;;;;;;5024861;28;20875;-71
2021/11/21 00:35:23;;;;;;;4.07;2.50;;;22.50;38.30;;;;;;5025920;28;20984;-72
2021/11/21 00:37:49;;;;;;;3.03;2.47;;;22.50;38.30;;;;;;5025976;28;20863;-73
2021/11/21 00:40:15;;;;;;;3.42;2.42;;;22.50;38.30;;;;;;5026170;28;21236;-73
2021/11/21 00:42:41;;;;;;;3.53;2.42;;;22.50;38.30;;;;;;5024606;28;20497;-72
2021/11/21 00:45:08;;;;;;;3.10;2.43;;;22.50;38.30;;;;;;5024794;28;20490;-71
2021/11/21 00:47:35;;;;;;;2.97;2.13;;;22.50;38.30;;;;;;5025841;28;20817;-72
2021/11/21 00:50:03;;;;;;;3.42;2.55;;;22.50;38.30;;;;;;5025849;28;20430;-72
2021/11/21 00:52:30;;;;;;;3.15;2.25;;;22.50;38.40;;;;;;5025753;28;20383;-73
2021/11/21 00:57:42;;;;;;;3.10;2.40;;;22.50;38.40;;;;;;5026122;28;20390;-69
2021/11/21 01:00:13;;;;;;;3.35;2.38;;;22.40;38.30;;;;;;5025514;28;20398;-71
2021/11/21 01:02:40;;;;;;;3.15;2.42;;;22.50;38.40;;;;;;5025649;28;20907;-69
2021/11/21 01:05:07;;;;;;;3.13;2.33;;;22.50;38.40;;;;;;5025803;28;20376;-73
2021/11/21 01:07:36;;;;;;;2.97;2.30;;;22.50;38.30;;;;;;5025684;28;20398;-73
2021/11/21 01:10:08;;;;;;;3.17;2.53;;;22.50;38.30;;;;;;5025222;28;20468;-72
2021/11/21 01:12:33;;;;;;;3.17;2.17;;;22.50;38.20;;;;;;5025280;28;20522;-73
2021/11/21 01:14:59;;;;;;;2.63;2.10;;;22.50;38.20;;;;;;5025339;28;20462;-69
2021/11/21 01:17:25;;;;;;;3.00;2.30;;;22.50;38.20;;;;;;5025419;28;20999;-72
2021/11/21 01:19:51;;;;;;;4.05;2.25;;;22.50;38.20;;;;;;5025276;28;20391;-72
2021/11/21 01:22:16;;;;;;;3.10;2.30;;;22.50;38.20;;;;;;5025354;28;20434;-73
2021/11/21 01:24:42;;;;;;;3.22;2.20;;;22.50;38.10;;;;;;5025023;28;20411;-71
2021/11/21 01:27:08;;;;;;;3.07;2.00;;;22.50;38.20;;;;;;5025411;28;20761;-73
2021/11/21 01:29:34;;;;;;;3.05;2.30;;;22.50;38.10;;;;;;5025018;28;20444;-72
2021/11/21 01:32:00;;;;;;;3.00;2.13;;;22.50;38.10;;;;;;5024765;28;20778;-72
2021/11/21 01:34:26;;;;;;;2.63;2.13;;;22.50;38.10;;;;;;5025015;28;20394;-71
2021/11/21 01:36:52;;;;;;;3.13;2.20;;;22.50;38.10;;;;;;5024987;28;20392;-69
2021/11/21 01:39:18;;;;;;;3.28;2.17;;;22.50;38.20;;;;;;5023548;28;20465;-73
2021/11/21 01:41:44;;;;;;;2.90;2.30;;;22.50;38.10;;;;;;5024781;28;20442;-71
2021/11/21 01:44:12;;;;;;;4.00;2.03;;;22.50;38.20;;;;;;5023655;28;20395;-71
2021/11/21 01:46:40;;;;;;;2.97;2.33;;;22.40;38.10;;;;;;5023473;28;20395;-72
2021/11/21 01:49:07;;;;;;;3.03;2.30;;;22.50;38.20;;;;;;5023111;28;20387;-70
2021/11/21 01:51:32;;;;;;;2.40;2.08;;;22.40;38.10;;;;;;5023373;28;20438;-71
2021/11/21 01:53:58;;;;;;;3.28;2.20;;;22.40;38.10;;;;;;5024246;28;20422;-71
2021/11/21 01:56:26;;;;;;;2.45;2.00;;;22.40;38.10;;;;;;5024526;28;20453;-71
2021/11/21 01:58:55;;;;;;;3.20;2.08;;;22.40;38.10;;;;;;5024640;28;20445;-72
2021/11/21 02:01:22;;;;;;;2.33;1.92;;;22.40;38.10;;;;;;5024488;28;20423;-73
2021/11/21 02:03:48;;;;;;;2.40;2.00;;;22.40;38.10;;;;;;5024360;28;20407;-72
2021/11/21 02:06:13;;;;;;;3.38;2.35;;;22.40;38.00;;;;;;5024228;28;20383;-72
2021/11/21 02:08:39;;;;;;;2.53;2.10;;;22.40;38.00;;;;;;5024392;28;20421;-71
2021/11/21 02:11:06;;;;;;;3.30;2.20;;;22.40;38.00;;;;;;5024155;28;20448;-70
2021/11/21 02:13:31;;;;;;;2.57;2.00;;;22.30;38.00;;;;;;5022979;28;20798;-73
2021/11/21 02:15:58;;;;;;;2.65;2.00;;;22.30;38.10;;;;;;5023965;28;20395;-71
2021/11/21 02:18:24;;;;;;;2.97;2.13;;;22.20;38.10;;;;;;5024309;28;20433;-72
2021/11/21 02:20:53;;;;;;;3.10;2.00;;;22.30;38.20;;;;;;5023979;28;20407;-69
2021/11/21 02:23:19;;;;;;;2.40;2.00;;;22.30;38.00;;;;;;5023989;28;20399;-71
2021/11/21 02:25:45;;;;;;;2.53;1.88;;;22.30;38.00;;;;;;5024093;28;20419;-71
2021/11/21 02:28:10;;;;;;;2.92;2.10;;;22.30;38.10;;;;;;5024013;28;20398;-72
2021/11/21 02:30:37;;;;;;;2.95;2.00;;;22.30;38.00;;;;;;5024090;28;20395;-71
2021/11/21 02:33:08;;;;;;;2.70;2.05;;;22.30;38.00;;;;;;5022720;28;20485;-73
2021/11/21 02:35:41;;;;;;;3.55;2.10;;;22.30;38.00;;;;;;5022492;28;20481;-73
2021/11/21 02:38:08;;;;;;;3.58;2.28;;;22.30;38.10;;;;;;5023376;28;20484;-70
2021/11/21 02:40:34;;;;;;;4.00;2.03;;;22.30;38.00;;;;;;5022476;28;20418;-73
2021/11/21 02:43:00;;;;;;;3.33;2.10;;;22.30;38.00;;;;;;5023220;28;20383;-73
2021/11/21 02:45:26;;;;;;;3.28;2.10;;;22.30;37.90;;;;;;5022261;28;20402;-72
2021/11/21 02:47:52;;;;;;;2.72;2.10;;;22.30;38.00;;;;;;5022398;28;20402;-72
2021/11/21 02:50:22;;;;;;;3.80;2.28;;;22.30;38.60;;;;;;5023215;28;20753;-70
2021/11/21 02:52:49;;;;;;;2.42;1.83;;;22.20;38.00;;;;;;5021863;28;20909;-69
2021/11/21 02:55:15;;;;;;;3.92;2.30;;;22.20;38.10;;;;;;5023598;28;20942;-72
2021/11/21 02:57:40;;;;;;;2.88;2.13;;;22.20;38.00;;;;;;5023434;28;20552;-72
2021/11/21 03:00:10;;;;;;;2.75;2.15;;;22.20;38.10;;;;;;5023591;28;20884;-71
2021/11/21 03:02:39;;;;;;;2.95;2.10;;;22.20;38.00;;;;;;5023544;28;20460;-73
2021/11/21 03:05:05;;;;;;;3.00;2.00;;;22.20;38.00;;;;;;5023502;28;21165;-73
2021/11/21 03:07:31;;;;;;;2.80;2.08;;;22.20;38.00;;;;;;5021924;28;20879;-72
2021/11/21 03:09:57;;;;;;;4.18;2.50;;;22.20;38.00;;;;;;5023477;28;20387;-71
2021/11/21 03:12:23;;;;;;;2.87;2.20;;;22.20;38.00;;;;;;5021822;28;20411;-71
2021/11/21 03:14:50;;;;;;;2.40;1.92;;;22.20;38.10;;;;;;5023204;28;20491;-73
2021/11/21 03:17:16;;;;;;;2.58;2.00;;;22.20;38.10;;;;;;5023265;28;20887;-72
2021/11/21 03:19:42;;;;;;;2.50;2.10;;;22.10;38.10;;;;;;5023162;28;20395;-72
2021/11/21 03:22:09;;;;;;;3.00;2.00;;;22.10;38.10;;;;;;5023200;28;20909;-72
2021/11/21 03:24:34;;;;;;;3.30;2.17;;;22.10;38.00;;;;;;5022868;28;20411;-71
2021/11/21 03:27:00;;;;;;;2.37;1.87;;;22.10;38.10;;;;;;5023248;28;20760;-73
2021/11/21 03:29:26;;;;;;;2.60;1.83;;;22.10;38.10;;;;;;5023144;28;20395;-71
2021/11/21 03:31:51;;;;;;;2.40;1.80;;;22.10;38.10;;;;;;5021772;28;20407;-71
2021/11/21 03:34:17;;;;;;;2.93;1.90;;;22.10;38.10;;;;;;5023115;28;20484;-72
2021/11/21 03:36:43;;;;;;;2.90;2.10;;;22.10;38.10;;;;;;5022941;28;20409;-71
2021/11/21 03:39:09;;;;;;;3.00;2.10;;;22.10;38.10;;;;;;5023043;28;20421;-73
2021/11/21 03:41:36;;;;;;;2.80;2.08;;;22.10;38.10;;;;;;5022760;28;20421;-72
2021/11/21 03:44:04;;;;;;;2.73;2.00;;;22.10;38.00;;;;;;5022536;28;20444;-72
2021/11/21 03:46:30;;;;;;;2.58;1.88;;;22.20;38.00;;;;;;5022966;28;20399;-72
2021/11/21 03:48:56;;;;;;;3.00;1.83;;;22.10;37.90;;;;;;5021494;28;20918;-72
2021/11/21 03:51:22;;;;;;;2.10;1.70;;;22.20;38.00;;;;;;5022934;28;20399;-71
2021/11/21 03:53:47;;;;;;;2.17;1.88;;;22.10;37.90;;;;;;5022875;28;20397;-71
2021/11/21 03:56:14;;;;;;;2.20;1.70;;;22.10;38.00;;;;;;5027045;28;21219;-73
2021/11/21 03:58:40;;;;;;;2.30;1.90;;;22.10;38.00;;;;;;5026785;28;21037;-72
2021/11/21 04:01:06;;;;;;;2.77;2.00;;;22.10;38.00;;;;;;5026556;28;20487;-69
2021/11/21 04:03:32;;;;;;;2.65;1.70;;;22.10;38.00;;;;;;5025406;28;20889;-72
2021/11/21 04:05:57;;;;;;;3.25;1.98;;;22.10;38.00;;;;;;5025105;28;20383;-71
2021/11/21 04:08:23;;;;;;;2.95;1.60;;;22.10;38.00;;;;;;5025580;28;20432;-72
2021/11/21 04:10:49;;;;;;;2.17;1.50;;;22.10;37.90;;;;;;5025144;28;20397;-71
2021/11/21 04:13:14;;;;;;;2.28;1.77;;;22.10;38.00;;;;;;5024938;28;20908;-72
2021/11/21 04:15:40;;;;;;;2.95;1.70;;;22.10;38.00;;;;;;5026159;28;20399;-72
2021/11/21 04:18:08;;;;;;;2.75;1.63;;;22.10;37.90;;;;;;5026518;28;20478;-71
2021/11/21 04:20:34;;;;;;;2.40;1.70;;;22.10;38.00;;;;;;5026401;28;20968;-72
2021/11/21 04:23:00;;;;;;;1.97;1.50;;;22.10;38.00;;;;;;5025948;28;20470;-69
2021/11/21 04:25:25;;;;;;;2.78;1.70;;;22.10;38.00;;;;;;5026273;28;20403;-70
2021/11/21 04:27:51;;;;;;;2.37;1.50;;;22.10;37.90;;;;;;5025989;28;20399;-72
2021/11/21 04:30:17;;;;;;;2.17;1.58;;;22.10;37.90;;;;;;5024882;28;20395;-71
2021/11/21 04:32:44;;;;;;;1.90;1.53;;;22.10;38.00;;;;;;5026085;28;20403;-72
2021/11/21 04:35:12;;;;;;;1.90;1.55;;;22.00;37.90;;;;;;5026044;28;20391;-72
2021/11/21 04:37:39;;;;;;;2.03;1.52;;;22.00;37.90;;;;;;5024612;28;20765;-71
2021/11/21 04:40:07;;;;;;;2.38;1.50;;;22.00;37.90;;;;;;5025979;28;20403;-73
2021/11/21 04:42:33;;;;;;;2.38;1.60;;;22.00;37.90;;;;;;5024026;28;20400;-71
2021/11/21 04:44:59;;;;;;;3.00;1.60;;;22.00;37.90;;;;;;5026115;28;20461;-72
2021/11/21 04:47:25;;;;;;;2.65;1.60;;;22.00;37.90;;;;;;5026110;28;20722;-74
2021/11/21 04:49:52;;;;;;;2.30;1.60;;;22.00;38.00;;;;;;5025741;28;20387;-71
2021/11/21 04:52:20;;;;;;;1.95;1.30;;;22.00;37.90;;;;;;5025884;28;20858;-71
2021/11/21 04:54:46;;;;;;;1.98;1.35;;;22.00;38.00;;;;;;5026060;28;20395;-73
2021/11/21 04:57:14;;;;;;;2.53;1.60;;;22.00;37.90;;;;;;5025452;28;20441;-72
2021/11/21 04:59:40;;;;;;;2.97;1.48;;;22.00;37.90;;;;;;5025491;28;20465;-72
2021/11/21 05:02:06;;;;;;;1.90;1.50;;;22.00;37.90;;;;;;5025650;28;20900;-72
2021/11/21 05:04:32;;;;;;;1.77;1.30;;;22.00;37.80;;;;;;5025045;28;20401;-69
2021/11/21 05:06:58;;;;;;;1.93;1.30;;;22.00;37.80;;;;;;5025434;28;20426;-71
2021/11/21 05:09:24;;;;;;;2.08;1.50;;;22.00;37.80;;;;;;5025150;28;20426;-71
2021/11/21 05:11:50;;;;;;;1.73;1.40;;;22.00;37.80;;;;;;5024144;28;20819;-71
2021/11/21 05:14:18;;;;;;;2.13;1.30;;;22.00;37.80;;;;;;5025651;28;20394;-72
2021/11/21 05:16:44;;;;;;;1.90;1.30;;;22.00;37.80;;;;;;5025237;28;20883;-72
2021/11/21 05:19:10;;;;;;;2.20;1.40;;;22.00;37.80;;;;;;5024088;28;20410;-71
2021/11/21 05:21:35;;;;;;;1.50;1.20;;;22.00;37.80;;;;;;5023764;28;20423;-72
2021/11/21 05:24:01;;;;;;;2.17;1.30;;;22.00;37.80;;;;;;5025288;28;20402;-72
2021/11/21 05:26:27;;;;;;;2.00;1.30;;;22.00;37.80;;;;;;5025271;28;20900;-70
2021/11/21 05:28:53;;;;;;;1.90;1.20;;;22.00;37.80;;;;;;5025153;28;20387;-72
2021/11/21 05:31:19;;;;;;;1.80;1.20;;;22.00;37.90;;;;;;5025584;28;20840;-72
2021/11/21 05:33:45;;;;;;;1.80;1.20;;;21.90;37.80;;;;;;5024965;28;20474;-71
2021/11/21 05:36:11;;;;;;;1.90;1.35;;;21.90;38.40;;;;;;5024849;28;20879;-70
2021/11/21 05:38:36;;;;;;;2.50;1.23;;;22.00;37.80;;;;;;5024877;28;20898;-72
2021/11/21 05:41:02;;;;;;;1.60;1.20;;;21.90;37.80;;;;;;5025088;28;20761;-72
2021/11/21 05:43:28;;;;;;;2.00;1.17;;;21.90;37.80;;;;;;5024654;28;20773;-70
2021/11/21 05:45:54;;;;;;;1.60;1.10;;;21.90;37.80;;;;;;5024889;28;20387;-72
2021/11/21 05:48:20;;;;;;;2.20;1.17;;;21.90;37.80;;;;;;5024854;28;20460;-72
2021/11/21 05:50:46;;;;;;;1.60;1.10;;;21.90;37.80;;;;;;5024787;28;20398;-72
2021/11/21 05:53:11;;;;;;;1.50;1.20;;;21.90;37.80;;;;;;5024736;28;20410;-72
2021/11/21 05:55:37;;;;;;;1.60;1.02;;;21.90;37.70;;;;;;5024463;28;20446;-70
2021/11/21 05:58:03;;;;;;;1.30;1.02;;;21.90;37.70;;;;;;5024490;28;20387;-72
2021/11/21 06:00:29;;;;;;;1.80;1.20;;;21.90;37.70;;;;;;5024414;28;20414;-72
2021/11/21 06:02:55;;;;;;;1.37;1.03;;;21.90;37.70;;;;;;5024355;28;20445;-71
2021/11/21 06:05:21;;;;;;;2.08;1.10;;;21.90;37.70;;;;;;5024220;28;20413;-72
2021/11/21 06:07:47;;;;;;;1.70;1.20;;;21.90;37.70;;;;;;5024477;28;20457;-71
2021/11/21 06:10:14;;;;;;;2.03;1.50;;;21.90;37.70;;;;;;5024531;28;20478;-73
2021/11/21 06:12:41;;;;;;;1.63;1.10;;;21.90;37.70;;;;;;5024147;28;20893;-72
2021/11/21 06:15:08;;;;;;;2.20;1.10;;;21.90;37.70;;;;;;5023026;28;20466;-71
2021/11/21 06:17:34;;;;;;;1.40;1.03;;;21.90;37.80;;;;;;5022189;28;20784;-72
2021/11/21 06:20:00;;;;;;;1.42;1.00;;;21.90;37.70;;;;;;5024056;28;20926;-72
2021/11/21 06:22:26;;;;;;;1.37;0.97;;;21.90;37.60;;;;;;5024273;28;20845;-72
2021/11/21 06:24:52;;;;;;;1.40;1.00;;;21.90;37.60;;;;;;5022612;28;20403;-71
2021/11/21 06:27:18;;;;;;;3.70;1.10;;;21.90;37.60;;;;;;5024138;28;20390;-72
2021/11/21 06:29:44;;;;;;;1.17;0.93;;;21.80;37.50;;;;;;5024033;28;20799;-69
2021/11/21 06:32:10;;;;;;;1.80;0.82;;;21.90;37.60;;;;;;5023840;28;20430;-71
2021/11/21 06:34:36;;;;;;;1.50;1.05;;;21.80;37.60;;;;;;5023869;28;20814;-72
2021/11/21 06:37:03;;;;;;;1.50;1.00;;;21.80;37.60;;;;;;5023683;28;20478;-72
2021/11/21 06:39:29;;;;;;;1.60;1.10;;;21.90;37.60;;;;;;5024027;28;21648;-70
2021/11/21 06:41:54;;;;;;;1.50;1.08;;;21.90;37.60;;;;;;5023523;28;20407;-72
2021/11/21 06:44:20;;;;;;;1.58;1.10;;;21.80;37.50;;;;;;5023687;28;20379;-69
2021/11/21 06:46:47;;;;;;;2.40;1.00;;;21.90;37.50;;;;;;5023590;28;20933;-71
2021/11/21 06:49:13;;;;;;;1.90;0.80;;;21.90;37.60;;;;;;5023485;28;20944;-70
2021/11/21 06:51:42;;;;;;;3.07;0.90;;;21.90;37.40;;;;;;5023666;28;20486;-72
2021/11/21 06:54:09;;;;;;;3.55;1.17;;;21.90;37.60;;;;;;5032454;28;20390;-73
2021/11/21 06:56:35;;;;;;;2.28;1.20;;;22.00;37.50;;;;;;5030967;28;20399;-71
2021/11/21 06:59:01;;;;;;;3.22;1.60;;;22.10;37.70;;;;;;5031298;28;20449;-71
2021/11/21 07:01:26;;;;;;;2.20;1.20;;;22.10;37.90;;;;;;5032071;28;20477;-72
2021/11/21 07:03:52;;;;;;;2.35;1.13;;;22.10;36.90;;;;;;5032060;28;20387;-71
2021/11/21 07:06:36;;;;;;;3.10;1.40;;;22.10;36.90;;;;;;5032175;28;20398;-71
2021/11/21 07:09:03;;;;;;;2.40;1.10;;;22.00;36.70;;;;;;5032204;28;20869;-70
2021/11/21 07:11:29;;;;;;;1.95;1.00;;;22.00;37.00;;;;;;5030649;28;20394;-71
2021/11/21 07:13:55;;;;;;;1.50;1.03;;;21.90;36.80;;;;;;5030699;28;20428;-70
2021/11/21 07:16:21;;;;;;;2.67;1.30;;;21.90;37.20;;;;;;5031933;28;20391;-71
2021/11/21 07:18:46;;;;;;;3.10;1.40;;;21.80;37.10;;;;;;5031995;28;20396;-71
2021/11/21 07:21:12;;;;;;;3.17;1.25;;;21.90;37.30;;;;;;5031706;28;20505;-72
2021/11/21 07:23:38;;;;;;;2.93;1.20;;;21.80;37.30;;;;;;5031812;28;20815;-71
2021/11/21 07:26:04;;;;;;;2.50;1.08;;;21.90;38.10;;;;;;5030376;28;20399;-71
2021/11/21 07:28:30;;;;;;;2.80;1.30;;;21.80;37.60;;;;;;5031669;28;20433;-72
2021/11/21 07:30:56;;;;;;;4.22;1.35;;;21.80;37.90;;;;;;5030552;28;20470;-70
2021/11/21 07:33:22;;;;;;;2.55;1.20;;;21.90;38.60;;;;;;5031982;28;20946;-70
2021/11/21 07:35:47;;;;;;;4.73;1.43;;;21.90;38.20;;;;;;5030023;28;20460;-71
2021/11/21 07:38:13;;;;;;;4.00;1.65;;;21.90;38.70;;;;;;5030427;28;20399;-71
2021/11/21 07:40:39;;;;;;;3.70;1.80;;;21.90;38.90;;;;;;5031546;28;20490;-72
2021/11/21 07:43:05;;;;;;;6.40;2.10;;;21.90;39.10;;;;;;5030269;28;20409;-69
2021/11/21 07:45:30;;;;;;;4.93;2.40;;;22.00;39.40;;;;;;5031434;28;20387;-70
2021/11/21 07:47:57;;;;;;;5.35;2.20;;;22.00;39.70;;;;;;5031462;28;20399;-72
2021/11/21 07:50:22;;;;;;;2.85;2.10;;;22.10;39.30;;;;;;5030175;28;20836;-69
2021/11/21 07:52:48;;;;;;;3.67;2.10;;;22.10;39.30;;;;;;5031441;28;20399;-69
2021/11/21 07:55:14;;;;;;;5.25;2.30;;;22.20;39.70;;;;;;5030109;28;20383;-71
2021/11/21 07:57:40;;;;;;;3.47;2.10;;;22.20;39.60;;;;;;5030238;28;20406;-72
2021/11/21 08:00:10;;;;;;;3.47;2.10;;;22.30;39.20;;;;;;5030020;28;20461;-70
2021/11/21 08:02:36;;;;;;;3.55;1.70;;;22.30;39.20;;;;;;5031289;28;20855;-72
2021/11/21 08:05:03;;;;;;;4.30;1.83;;;22.40;38.80;;;;;;5023733;28;20387;-69
2021/11/21 08:07:29;;;;;;;5.03;1.88;;;22.30;39.20;;;;;;5022345;28;20395;-70
2021/11/21 08:09:54;;;;;;;3.17;1.90;;;22.30;38.70;;;;;;5017800;28;21529;-70
2021/11/21 08:12:20;;;;;;;3.42;1.50;;;22.30;39.40;;;;;;5021513;28;20498;-68
2021/11/21 08:14:46;;;;;;;3.17;1.80;;;22.30;39.40;;;;;;5020890;28;20399;-72
2021/11/21 08:17:11;;;;;;;3.95;1.90;;;22.40;40.10;;;;;;5020977;28;20395;-71
2021/11/21 08:19:38;;;;;;;4.27;1.70;;;22.40;39.70;;;;;;5016120;28;20804;-70
2021/11/21 08:22:05;;;;;;;5.50;1.80;;;22.50;39.90;;;;;;5017394;28;20426;-71
2021/11/21 08:24:31;;;;;;;3.20;1.60;;;22.40;40.00;;;;;;5019377;28;20489;-70
2021/11/21 08:26:57;;;;;;;5.93;2.00;;;22.40;39.90;;;;;;5021627;28;20786;-71
2021/11/21 08:29:24;;;;;;;4.32;1.73;;;22.40;40.40;;;;;;5020461;28;20397;-71
2021/11/21 08:31:52;;;;;;;9.65;2.17;;;22.50;39.90;;;;;;5020433;28;20449;-68
2021/11/21 08:34:19;;;;;;;3.22;1.70;;;22.50;39.50;;;;;;5020927;28;20952;-70
2021/11/21 08:36:45;;;;;;;5.50;2.00;;;22.40;38.70;;;;;;5026127;28;20460;-75
2021/11/21 08:39:12;;;;;;;4.22;2.28;;;22.50;38.90;;;;;;5027225;28;20383;-72
2021/11/21 08:41:38;;;;;;;4.90;1.80;;;22.50;38.80;;;;;;5063990;28;20457;-76
2021/11/21 08:44:04;;;;;;;6.35;1.85;;;22.40;38.50;;;;;;5033332;28;20772;-75
2021/11/21 08:46:30;;;;;;;4.50;1.80;;;22.50;38.30;;;;;;5032382;28;20449;-70
2021/11/21 08:48:56;;;;;;;5.47;2.15;;;22.50;38.00;;;;;;5033471;28;20383;-70
2021/11/21 08:51:22;;;;;;;4.35;2.65;;;22.50;37.90;;;;;;5032574;28;20465;-73
2021/11/21 08:53:48;;;;;;;6.20;3.40;;;22.50;37.80;;;;;;5032434;28;20460;-70
2021/11/21 08:56:19;;;;;;;6.47;2.83;;;22.50;37.60;;;;;;5043677;28;20420;-68
2021/11/21 08:58:45;;;;;;;5.22;2.63;;;22.50;37.60;;;;;;5032466;28;21640;-69
2021/11/21 09:01:11;;;;;;;3.70;2.20;;;22.50;37.50;;;;;;5028707;28;20924;-71
2021/11/21 09:03:39;;;;;;;3.47;1.90;;;22.50;37.50;;;;;;5032569;28;20391;-72
2021/11/21 09:06:05;;;;;;;4.63;2.03;;;22.50;37.80;;;;;;5032670;28;20445;-72
2021/11/21 09:08:31;;;;;;;4.72;2.15;;;22.60;37.80;;;;;;5032317;28;20395;-72
2021/11/21 09:10:57;;;;;;;4.37;2.20;;;22.60;37.80;;;;;;5032000;28;20482;-77
2021/11/21 09:13:23;;;;;;;4.25;1.90;;;22.70;37.70;;;;;;5031004;28;20399;-75
2021/11/21 09:15:49;;;;;;;3.60;2.08;;;22.70;37.70;;;;;;5031758;28;20461;-72
2021/11/21 09:18:15;;;;;;;4.63;2.28;;;22.70;37.60;;;;;;5030616;28;20399;-69
2021/11/21 09:20:42;;;;;;;4.47;1.88;;;22.70;37.70;;;;;;5030099;28;20931;-68
2021/11/21 09:23:12;;;;;;;3.42;1.92;;;22.70;37.70;;;;;;5031802;28;20885;-69
2021/11/21 09:25:39;;;;;;;3.22;1.80;;;22.70;37.80;;;;;;5027609;28;20916;-71
2021/11/21 09:28:07;;;;;;;4.03;2.00;;;22.60;37.60;;;;;;5031166;28;20497;-72
2021/11/21 09:30:32;;;;;;;4.70;2.05;;;22.60;37.80;;;;;;5029954;28;20955;-71
2021/11/21 09:32:58;;;;;;;4.83;2.00;;;22.60;38.70;;;;;;5031369;28;20399;-70
2021/11/21 09:35:24;;;;;;;3.65;1.90;;;22.70;39.50;;;;;;5031296;28;20765;-72
2021/11/21 09:37:50;;;;;;;3.43;1.80;;;22.80;39.60;;;;;;5031534;28;20752;-71
2021/11/21 09:40:16;;;;;;;3.47;2.00;;;22.80;39.80;;;;;;5031378;28;20398;-72
2021/11/21 09:42:43;;;;;;;2.80;1.70;;;22.70;39.80;;;;;;5031211;28;20419;-71
2021/11/21 09:45:11;;;;;;;2.42;1.70;;;22.70;39.90;;;;;;5031321;28;20419;-72
2021/11/21 09:47:37;;;;;;;2.92;1.50;;;22.70;39.70;;;;;;5026031;28;20939;-72
2021/11/21 09:50:11;;;;;;;2.92;1.75;;;22.70;39.40;;;;;;5031201;28;20418;-71
2021/11/21 09:52:37;;;;;;;3.45;1.70;;;22.80;39.20;;;;;;5051932;28;20412;-71
2021/11/21 09:55:07;;;;;;;2.88;1.60;;;22.80;38.90;;;;;;5031208;28;20403;-72
2021/11/21 09:57:36;;;;;;;2.60;1.70;;;22.90;38.70;;;;;;5030753;28;20384;-71
2021/11/21 10:00:06;;;;;;;2.70;1.75;;;22.90;38.60;;;;;;5030918;28;20762;-71
2021/11/21 10:02:34;;;;;;;3.50;1.58;;;22.90;38.50;;;;;;5030934;28;20858;-71
2021/11/21 10:05:07;;;;;;;2.50;1.50;;;23.00;38.60;;;;;;5033322;28;20470;-71
2021/11/21 10:07:35;;;;;;;3.03;1.80;;;23.00;38.40;;;;;;5033091;28;20406;-72
2021/11/21 10:10:05;;;;;;;2.03;1.35;;;23.00;38.40;;;;;;5033224;28;20837;-71
2021/11/21 10:12:43;;;;;;;2.50;1.50;;;23.10;38.40;;;;;;5048268;28;20434;-71
2021/11/21 10:15:13;;;;;;;2.35;1.70;;;23.10;38.30;;;;;;5031429;28;20395;-71
2021/11/21 10:17:46;;;;;;;3.60;1.67;;;23.00;38.30;;;;;;5033105;28;20482;-72
2021/11/21 10:20:20;;;;;;;3.60;1.70;;;23.00;38.40;;;;;;5033043;28;20492;-71
2021/11/21 10:23:00;;;;;;;4.57;1.60;;;23.10;38.70;;;;;;5033307;28;20402;-71
2021/11/21 10:25:36;;;;;;;5.25;1.60;;;23.20;38.60;;;;;;5032696;28;20399;-71
2021/11/21 10:28:06;;;;;;;3.28;1.50;;;23.20;38.60;;;;;;5032800;28;20396;-70
2021/11/21 10:30:33;;;;;;;3.38;1.60;;;23.30;38.60;;;;;;5031654;28;20407;-71
2021/11/21 10:33:03;;;;;;;3.58;1.42;;;23.30;38.70;;;;;;5032605;28;20410;-72
2021/11/21 10:35:29;;;;;;;4.53;1.60;;;23.40;38.60;;;;;;5031461;28;20831;-72
2021/11/21 10:37:57;;;;;;;3.70;1.40;;;23.50;38.60;;;;;;5032450;28;20478;-72
2021/11/21 10:40:24;;;;;;;3.67;1.80;;;23.50;38.60;;;;;;5031394;28;20399;-72
2021/11/21 10:42:51;;;;;;;3.95;1.60;;;23.60;38.30;;;;;;5048017;28;20414;-72
2021/11/21 10:45:23;;;;;;;3.22;1.50;;;23.60;38.20;;;;;;5032134;28;20467;-71
2021/11/21 10:47:52;;;;;;;2.60;1.40;;;23.70;38.80;;;;;;5032380;28;20394;-71
2021/11/21 10:50:29;;;;;;;3.70;1.40;;;23.70;38.70;;;;;;5031253;28;20399;-71
2021/11/21 10:52:56;;;;;;;2.33;1.33;;;23.80;38.50;;;;;;5032066;28;20395;-72
2021/11/21 10:55:22;;;;;;;3.30;1.50;;;23.80;38.30;;;;;;5030927;28;20793;-71
2021/11/21 10:57:48;;;;;;;3.20;1.58;;;23.90;38.40;;;;;;5032323;28;20402;-71
2021/11/21 11:00:19;;;;;;;5.07;1.60;;;24.00;38.90;;;;;;5032064;28;21022;-71
2021/11/21 11:02:45;;;;;;;5.53;1.40;;;24.00;39.50;;;;;;5030241;28;20449;-73
2021/11/21 11:05:15;;;;;;;3.80;1.30;;;24.00;39.30;;;;;;5030716;28;20434;-72
2021/11/21 11:07:46;;;;;;;6.38;1.60;;;24.00;39.00;;;;;;5031886;28;20753;-72
2021/11/21 11:10:16;;;;;;;5.70;1.60;;;24.10;38.90;;;;;;5030702;28;20946;-74
2021/11/21 11:12:51;;;;;;;4.32;1.30;;;24.10;38.40;;;;;;5031337;28;20403;-71
2021/11/21 11:15:18;;;;;;;4.90;1.38;;;24.20;38.30;;;;;;5030893;28;20387;-73
2021/11/21 11:17:44;;;;;;;6.05;1.55;;;24.20;38.30;;;;;;5030549;28;20387;-71
2021/11/21 11:20:14;;;;;;;3.72;1.50;;;24.20;37.90;;;;;;5032062;28;20399;-73
2021/11/21 11:22:41;;;;;;;4.93;1.60;;;24.30;38.40;;;;;;5030570;28;20959;-73
2021/11/21 11:25:20;;;;;;;8.52;1.75;;;24.40;38.50;;;;;;5031765;28;20553;-72
2021/11/21 11:27:52;;;;;;;11.50;2.30;;;24.50;38.40;;;;;;5030802;28;20402;-75
2021/11/21 11:30:28;;;;;;;4.47;1.80;;;24.60;38.00;;;;;;5032104;28;20473;-76
2021/11/21 11:33:10;;;;;;;7.50;1.88;;;24.70;37.50;;;;;;5030552;28;20450;-69
2021/11/21 11:35:39;;;;;;;5.82;2.20;;;24.70;37.30;;;;;;5031719;28;20395;-69
2021/11/21 11:38:14;;;;;;;4.88;2.00;;;24.50;37.10;;;;;;5031837;28;20399;-68
2021/11/21 11:41:02;;;;;;;6.47;1.90;;;24.40;37.00;;;;;;5031479;28;20398;-69
2021/11/21 11:43:47;;;;;;;8.67;2.10;;;24.20;37.10;;;;;;5029897;28;20509;-68
2021/11/21 11:46:13;;;;;;;5.53;1.80;;;24.20;37.50;;;;;;5031724;28;20399;-69
2021/11/21 11:48:40;;;;;;;7.47;1.83;;;24.20;38.00;;;;;;5031469;28;20865;-70
2021/11/21 11:51:15;;;;;;;6.07;2.00;;;24.20;38.40;;;;;;5031432;28;20399;-69
2021/11/21 11:53:46;;;;;;;7.95;2.00;;;24.30;38.60;;;;;;5031674;28;20391;-73
2021/11/21 11:56:31;;;;;;;7.60;2.40;;;24.40;38.90;;;;;;5032215;28;20869;-79
2021/11/21 11:58:58;;;;;;;8.35;1.85;;;24.50;39.00;;;;;;5029539;28;20395;-77
2021/11/21 12:01:38;;;;;;;9.35;2.38;;;24.80;40.40;;;;;;5029099;28;20418;-78
2021/11/21 12:04:09;;;;;;;7.17;2.10;;;24.90;41.10;;;;;;5026359;28;21015;-71
2021/11/21 12:06:51;;;;;;;8.77;2.63;;;24.90;41.60;;;;;;5029382;28;20393;-73
2021/11/21 12:09:26;;;;;;;7.43;2.42;;;24.90;42.80;;;;;;5029568;28;20391;-72
2021/11/21 12:12:07;;;;;;;8.77;2.15;;;25.00;42.30;;;;;;5027049;28;20387;-72
2021/11/21 12:14:35;;;;;;;7.07;2.72;;;25.10;43.10;;;;;;5026381;28;20394;-73
2021/11/21 12:17:03;;;;;;;7.18;2.67;;;25.30;44.80;;;;;;5033116;28;20456;-72
2021/11/21 12:19:41;;;;;;;6.25;2.30;;;25.60;44.20;;;;;;5034668;28;20401;-72
2021/11/21 12:22:34;;;;;;;7.15;2.03;;;25.70;43.30;;;;;;5034961;28;20505;-73
2021/11/21 12:25:05;;;;;;;7.30;2.10;;;25.70;42.50;;;;;;5034692;28;20476;-73
2021/11/21 12:27:39;;;;;;;5.72;2.13;;;25.70;42.30;;;;;;5034806;28;20387;-73
2021/11/21 12:30:12;;;;;;;6.80;2.30;;;25.70;42.90;;;;;;5034932;28;20889;-72
2021/11/21 12:32:47;;;;;;;9.88;2.28;;;25.80;45.00;;;;;;5035030;28;20387;-73
2021/11/21 12:35:30;;;;;;;12.50;2.53;;;25.70;43.80;;;;;;5034987;28;20396;-73
2021/11/21 12:38:04;;;;;;;10.18;2.30;;;25.70;45.70;;;;;;5034264;28;20391;-73
2021/11/21 12:40:52;;;;;;;14.57;2.65;;;25.70;45.00;;;;;;5033639;28;20395;-72
2021/11/21 12:43:20;;;;;;;10.70;2.55;;;25.70;45.40;;;;;;5033435;28;20465;-73
2021/11/21 12:45:47;;;;;;;8.63;2.30;;;25.70;44.50;;;;;;5033432;28;20391;-73
2021/11/21 12:48:15;;;;;;;10.63;2.22;;;25.70;45.40;;;;;;5033690;28;20881;-73
2021/11/21 12:50:49;;;;;;;8.25;2.03;;;25.70;45.20;;;;;;5033170;28;20474;-73